createdAt,value
2023-01-18T03:59:33.615Z,0.00
2023-01-18T04:00:32.533Z,0.00
2023-01-18T04:01:32.669Z,0.00
2023-01-18T04:02:32.536Z,0.00
2023-01-18T04:03:33.100Z,0.00
2023-01-18T04:04:32.482Z,0.00
2023-01-18T04:05:32.588Z,0.00
2023-01-18T04:06:33.088Z,0.00
2023-01-18T04:07:31.456Z,0.00
2023-01-18T04:08:33.078Z,0.00
2023-01-18T04:09:33.068Z,0.00
2023-01-18T04:10:33.109Z,0.00
2023-01-18T04:11:33.080Z,0.00
2023-01-18T04:12:33.078Z,0.00
2023-01-18T04:13:33.092Z,0.00
2023-01-18T04:14:33.106Z,0.00
2023-01-18T04:15:33.080Z,0.00
2023-01-18T04:16:33.080Z,0.00
2023-01-18T04:17:33.076Z,0.00
2023-01-18T04:18:33.102Z,0.00
2023-01-18T04:19:33.083Z,0.00
2023-01-18T04:20:33.087Z,0.00
2023-01-18T04:21:33.091Z,0.00
2023-01-18T04:22:33.090Z,0.00
2023-01-18T04:23:33.135Z,0.00
2023-01-18T04:24:33.074Z,0.00
2023-01-18T04:25:33.082Z,0.00
2023-01-18T04:26:33.098Z,0.00
2023-01-18T04:27:33.090Z,0.00
2023-01-18T04:28:31.347Z,0.00
2023-01-18T04:29:31.356Z,0.00
2023-01-18T04:30:31.318Z,0.00
2023-01-18T04:31:31.399Z,0.00
2023-01-18T04:32:32.594Z,0.00
2023-01-18T04:33:31.304Z,0.00
2023-01-18T04:34:31.299Z,0.00
2023-01-18T04:35:32.603Z,0.00
2023-01-18T04:36:31.288Z,0.00
2023-01-18T04:37:33.102Z,0.00
2023-01-18T04:38:31.274Z,0.00
2023-01-18T04:39:31.286Z,0.00
2023-01-18T04:40:32.267Z,0.00
2023-01-18T04:41:33.105Z,0.00
2023-01-18T04:42:32.630Z,0.00
2023-01-18T04:43:31.248Z,0.00
2023-01-18T04:44:33.095Z,0.00
2023-01-18T04:45:31.236Z,0.00
2023-01-18T04:47:32.633Z,0.00
2023-01-18T04:48:32.227Z,0.00
2023-01-18T04:49:33.099Z,0.00
2023-01-18T04:50:32.216Z,0.00
2023-01-18T04:51:33.097Z,0.00
2023-01-18T04:52:32.612Z,0.00
2023-01-18T04:53:33.102Z,0.00
2023-01-18T04:54:32.190Z,0.00
2023-01-18T04:55:31.201Z,0.00
2023-01-18T04:56:31.179Z,0.00
2023-01-18T04:57:33.118Z,0.00
2023-01-18T04:58:31.190Z,0.00
2023-01-18T04:59:31.193Z,0.00
2023-01-18T05:00:32.679Z,0.00
2023-01-18T05:01:31.336Z,0.00
2023-01-18T05:02:31.276Z,0.00
2023-01-18T05:03:31.174Z,0.00
2023-01-18T05:04:31.148Z,0.00
2023-01-18T05:05:32.619Z,0.00
2023-01-18T05:06:31.135Z,0.00
2023-01-18T05:07:32.722Z,0.00
2023-01-18T05:08:32.638Z,0.00
2023-01-18T05:09:31.140Z,0.00
2023-01-18T05:10:31.120Z,0.00
2023-01-18T05:11:32.625Z,0.00
2023-01-18T05:12:32.141Z,0.00
2023-01-18T05:13:32.626Z,0.00
2023-01-18T05:14:32.632Z,0.00
2023-01-18T05:15:32.101Z,0.00
2023-01-18T05:16:32.697Z,0.00
2023-01-18T05:17:32.667Z,0.00
2023-01-18T05:18:32.069Z,0.00
2023-01-18T05:19:32.659Z,0.00
2023-01-18T05:20:31.070Z,0.00
2023-01-18T05:21:32.636Z,0.00
2023-01-18T05:22:32.633Z,0.00
2023-01-18T05:23:32.667Z,0.00
2023-01-18T05:24:32.641Z,0.00
2023-01-18T05:25:32.653Z,0.00
2023-01-18T05:26:32.640Z,0.00
2023-01-18T05:27:32.644Z,0.00
2023-01-18T05:28:32.646Z,0.00
2023-01-18T05:29:32.627Z,0.00
2023-01-18T05:30:32.647Z,0.00
2023-01-18T05:31:32.663Z,0.00
2023-01-18T05:32:32.039Z,0.00
2023-01-18T05:33:32.007Z,0.00
2023-01-18T05:34:32.033Z,0.00
2023-01-18T05:35:31.999Z,0.00
2023-01-18T05:36:32.019Z,0.00
2023-01-18T05:37:32.162Z,0.00
2023-01-18T05:38:31.970Z,0.00
2023-01-18T05:39:32.145Z,0.00
2023-01-18T05:40:32.167Z,0.00
2023-01-18T05:41:31.982Z,0.00
2023-01-18T05:42:32.646Z,0.00
2023-01-18T05:43:33.834Z,0.00
2023-01-18T05:44:32.657Z,0.00
2023-01-18T05:45:32.715Z,0.00
2023-01-18T05:46:32.656Z,0.00
2023-01-18T05:47:32.651Z,0.00
2023-01-18T05:48:32.671Z,0.00
2023-01-18T05:49:32.675Z,0.00
2023-01-18T05:50:32.660Z,0.00
2023-01-18T05:51:32.703Z,0.00
2023-01-18T05:52:32.651Z,0.00
2023-01-18T05:53:30.912Z,0.00
2023-01-18T05:54:31.903Z,0.00
2023-01-18T05:55:32.672Z,0.00
2023-01-18T05:56:31.891Z,0.00
2023-01-18T05:57:32.688Z,0.00
2023-01-18T05:58:30.888Z,0.00
2023-01-18T05:59:30.877Z,0.00
2023-01-18T06:00:30.866Z,0.00
2023-01-18T06:01:30.946Z,0.00
2023-01-18T06:02:32.189Z,0.00
2023-01-18T06:03:30.881Z,0.00
2023-01-18T06:04:30.922Z,0.00
2023-01-18T06:05:30.853Z,0.00
2023-01-18T06:06:34.609Z,0.00
2023-01-18T06:07:30.853Z,0.00
2023-01-18T06:08:32.673Z,0.00
2023-01-18T06:09:30.821Z,0.00
2023-01-18T06:10:30.822Z,0.00
2023-01-18T06:11:30.814Z,0.00
2023-01-18T06:12:30.825Z,0.00
2023-01-18T06:13:32.734Z,0.00
2023-01-18T06:14:31.801Z,0.00
2023-01-18T06:15:30.792Z,0.00
2023-01-18T06:16:32.712Z,0.00
2023-01-18T06:17:30.789Z,0.00
2023-01-18T06:18:32.736Z,0.00
2023-01-18T06:19:31.774Z,0.00
2023-01-18T06:20:32.665Z,0.00
2023-01-18T06:21:30.764Z,0.00
2023-01-18T06:22:32.678Z,0.00
2023-01-18T06:23:32.704Z,0.00
2023-01-18T06:24:32.698Z,0.00
2023-01-18T06:25:32.671Z,0.00
2023-01-18T06:26:32.674Z,0.00
2023-01-18T06:27:32.677Z,0.00
2023-01-18T06:28:32.719Z,0.00
2023-01-18T06:29:32.696Z,0.00
2023-01-18T06:30:32.712Z,0.00
2023-01-18T06:31:32.720Z,0.00
2023-01-18T06:32:32.683Z,0.00
2023-01-18T06:33:32.689Z,0.00
2023-01-18T06:34:32.713Z,0.00
2023-01-18T06:35:32.217Z,0.00
2023-01-18T06:36:31.760Z,0.00
2023-01-18T06:37:32.189Z,0.00
2023-01-18T06:38:32.203Z,0.00
2023-01-18T06:39:32.217Z,0.00
2023-01-18T06:40:32.197Z,0.00
2023-01-18T06:41:32.213Z,0.00
2023-01-18T06:42:30.676Z,0.00
2023-01-18T06:43:30.711Z,0.00
2023-01-18T06:44:30.649Z,0.00
2023-01-18T06:45:32.344Z,0.00
2023-01-18T06:46:32.218Z,0.00
2023-01-18T06:47:30.637Z,0.00
2023-01-18T06:48:32.240Z,0.00
2023-01-18T06:49:32.397Z,0.00
2023-01-18T06:50:31.763Z,0.00
2023-01-18T06:51:30.616Z,0.00
2023-01-18T06:52:30.615Z,0.00
2023-01-18T06:53:32.217Z,0.00
2023-01-18T06:54:31.604Z,0.00
2023-01-18T06:55:32.258Z,0.00
2023-01-18T06:56:32.224Z,0.00
2023-01-18T06:57:32.243Z,0.00
2023-01-18T06:58:32.238Z,0.00
2023-01-18T06:59:30.579Z,0.00
2023-01-18T07:00:30.600Z,0.00
2023-01-18T07:01:30.761Z,0.00
2023-01-18T07:02:30.559Z,0.00
2023-01-18T07:03:32.290Z,0.00
2023-01-18T07:04:33.057Z,0.00
2023-01-18T07:05:30.546Z,0.00
2023-01-18T07:06:32.237Z,0.00
2023-01-18T07:07:30.570Z,0.00
2023-01-18T07:08:30.540Z,0.00
2023-01-18T07:09:30.527Z,0.00
2023-01-18T07:10:30.524Z,0.00
2023-01-18T07:11:32.241Z,0.00
2023-01-18T07:12:30.513Z,0.00
2023-01-18T07:13:30.508Z,0.00
2023-01-18T07:14:31.530Z,0.00
2023-01-18T07:15:31.763Z,0.00
2023-01-18T07:16:30.565Z,0.00
2023-01-18T07:17:32.218Z,0.00
2023-01-18T07:18:32.216Z,0.00
2023-01-18T07:19:32.234Z,0.00
2023-01-18T07:20:32.259Z,0.00
2023-01-18T07:21:32.484Z,0.00
2023-01-18T07:22:31.802Z,0.00
2023-01-18T07:24:32.228Z,0.00
2023-01-18T07:25:32.241Z,0.00
2023-01-18T07:26:32.242Z,0.00
2023-01-18T07:27:32.238Z,0.00
2023-01-18T07:28:32.297Z,0.00
2023-01-18T07:29:30.440Z,0.00
2023-01-18T07:30:30.439Z,0.00
2023-01-18T07:31:32.294Z,0.00
2023-01-18T07:32:30.411Z,0.00
2023-01-18T07:33:30.417Z,0.00
2023-01-18T07:34:30.416Z,0.00
2023-01-18T07:35:30.427Z,0.00
2023-01-18T07:36:32.235Z,0.00
2023-01-18T07:37:31.763Z,0.00
2023-01-18T07:38:30.380Z,0.00
2023-01-18T07:39:32.252Z,0.00
2023-01-18T07:40:30.382Z,0.00
2023-01-18T07:41:31.131Z,5.63
2023-01-18T07:42:32.258Z,5.63
2023-01-18T07:43:32.302Z,5.63
2023-01-18T07:44:30.374Z,5.63
2023-01-18T07:45:30.598Z,5.63
2023-01-18T07:46:30.553Z,5.63
2023-01-18T07:47:32.255Z,5.63
2023-01-18T07:48:30.348Z,5.63
2023-01-18T07:49:30.342Z,5.63
2023-01-18T07:50:32.256Z,5.63
2023-01-18T07:51:31.330Z,5.63
2023-01-18T07:52:32.289Z,5.63
2023-01-18T07:53:30.351Z,5.63
2023-01-18T07:54:32.235Z,5.63
2023-01-18T07:55:32.267Z,5.63
2023-01-18T07:56:32.301Z,5.63
2023-01-18T07:57:32.304Z,5.63
2023-01-18T07:58:32.288Z,5.63
2023-01-18T07:59:32.284Z,11.25
2023-01-18T08:00:32.245Z,11.25
2023-01-18T08:01:31.339Z,11.25
2023-01-18T08:02:32.328Z,11.25
2023-01-18T08:03:32.261Z,11.25
2023-01-18T08:04:31.767Z,11.25
2023-01-18T08:05:31.752Z,11.25
2023-01-18T08:06:31.806Z,11.25
2023-01-18T08:07:31.765Z,11.25
2023-01-18T08:08:31.774Z,11.25
2023-01-18T08:09:31.767Z,11.25
2023-01-18T08:10:31.778Z,11.25
2023-01-18T08:11:31.785Z,11.25
2023-01-18T08:12:32.017Z,11.25
2023-01-18T08:14:31.770Z,16.88
2023-01-18T08:15:31.853Z,16.88
2023-01-18T08:16:31.777Z,16.88
2023-01-18T08:17:31.784Z,16.88
2023-01-18T08:18:30.194Z,16.88
2023-01-18T08:19:30.221Z,16.88
2023-01-18T08:20:31.781Z,16.88
2023-01-18T08:21:31.784Z,16.88
2023-01-18T08:22:30.167Z,16.88
2023-01-18T08:23:31.837Z,16.88
2023-01-18T08:24:30.153Z,16.88
2023-01-18T08:25:31.812Z,16.88
2023-01-18T08:26:31.767Z,16.88
2023-01-18T08:27:31.796Z,22.50
2023-01-18T08:28:31.801Z,22.50
2023-01-18T08:29:31.767Z,22.50
2023-01-18T08:30:30.255Z,22.50
2023-01-18T08:31:32.942Z,22.50
2023-01-18T08:32:30.334Z,22.50
2023-01-18T08:33:30.114Z,22.50
2023-01-18T08:34:34.091Z,22.50
2023-01-18T08:35:31.603Z,22.50
2023-01-18T08:36:33.622Z,22.50
2023-01-18T08:37:30.780Z,28.13
2023-01-18T08:38:31.791Z,28.13
2023-01-18T08:39:31.835Z,28.13
2023-01-18T08:40:30.134Z,28.13
2023-01-18T08:41:30.084Z,28.13
2023-01-18T08:42:31.803Z,28.13
2023-01-18T08:43:30.076Z,28.13
2023-01-18T08:44:31.788Z,28.13
2023-01-18T08:45:30.081Z,28.13
2023-01-18T08:46:31.863Z,28.13
2023-01-18T08:47:30.085Z,28.13
2023-01-18T08:48:31.844Z,28.13
2023-01-18T08:49:31.789Z,28.13
2023-01-18T08:50:30.097Z,28.13
2023-01-18T08:51:31.834Z,28.13
2023-01-18T08:52:30.045Z,28.13
2023-01-18T08:53:30.076Z,28.13
2023-01-18T08:54:31.867Z,33.75
2023-01-18T08:55:30.033Z,33.75
2023-01-18T08:56:31.834Z,33.75
2023-01-18T08:57:30.960Z,33.75
2023-01-18T08:58:31.888Z,33.75
2023-01-18T08:59:31.869Z,33.75
2023-01-18T09:00:31.859Z,33.75
2023-01-18T09:01:31.961Z,33.75
2023-01-18T09:02:31.911Z,33.75
2023-01-18T09:03:29.981Z,39.38
2023-01-18T09:04:31.360Z,39.38
2023-01-18T09:05:31.874Z,39.38
2023-01-18T09:06:32.041Z,39.38
2023-01-18T09:07:31.814Z,39.38
2023-01-18T09:08:29.947Z,39.38
2023-01-18T09:09:31.828Z,39.38
2023-01-18T09:10:29.963Z,39.38
2023-01-18T09:11:29.938Z,39.38
2023-01-18T09:12:29.933Z,45.00
2023-01-18T09:13:30.824Z,45.00
2023-01-18T09:14:29.933Z,45.00
2023-01-18T09:15:29.932Z,45.00
2023-01-18T09:16:32.020Z,45.00
2023-01-18T09:17:30.920Z,45.00
2023-01-18T09:18:31.352Z,45.00
2023-01-18T09:19:29.918Z,45.00
2023-01-18T09:20:31.837Z,50.63
2023-01-18T09:21:29.927Z,50.63
2023-01-18T09:23:31.826Z,50.63
2023-01-18T09:24:29.875Z,50.63
2023-01-18T09:25:31.816Z,56.25
2023-01-18T09:26:31.338Z,56.25
2023-01-18T09:27:31.836Z,56.25
2023-01-18T09:28:31.885Z,50.63
2023-01-18T09:29:31.881Z,56.25
2023-01-18T09:30:30.866Z,56.25
2023-01-18T09:31:31.884Z,56.25
2023-01-18T09:32:31.860Z,61.88
2023-01-18T09:33:37.544Z,61.88
2023-01-18T09:34:31.318Z,61.88
2023-01-18T09:35:31.391Z,61.88
2023-01-18T09:37:31.356Z,61.88
2023-01-18T09:38:31.324Z,61.88
2023-01-18T09:39:37.619Z,61.88
2023-01-18T09:40:31.419Z,61.88
2023-01-18T09:41:31.353Z,61.88
2023-01-18T09:42:31.345Z,61.88
2023-01-18T09:43:31.467Z,61.88
2023-01-18T09:44:29.815Z,67.50
2023-01-18T09:45:29.795Z,67.50
2023-01-18T09:46:31.346Z,67.50
2023-01-18T09:47:31.365Z,67.50
2023-01-18T09:48:31.355Z,67.50
2023-01-18T09:49:31.373Z,67.50
2023-01-18T09:50:32.359Z,73.13
2023-01-18T09:51:31.390Z,73.13
2023-01-18T09:52:31.349Z,73.13
2023-01-18T09:53:29.749Z,73.13
2023-01-18T09:54:31.339Z,73.13
2023-01-18T09:55:31.347Z,73.13
2023-01-18T09:56:31.340Z,73.13
2023-01-18T09:57:31.381Z,73.13
2023-01-18T09:58:31.335Z,73.13
2023-01-18T09:59:31.347Z,73.13
2023-01-18T10:00:31.487Z,73.13
2023-01-18T10:01:31.422Z,73.13
2023-01-18T10:02:31.411Z,73.13
2023-01-18T10:13:48.106Z,73.13
2023-01-18T10:14:47.086Z,73.13
2023-01-18T10:15:47.065Z,73.13
2023-01-18T10:16:47.094Z,73.13
2023-01-18T10:17:47.079Z,78.75
2023-01-18T10:18:47.075Z,78.75
2023-01-18T10:19:47.094Z,78.75
2023-01-18T10:20:47.074Z,78.75
2023-01-18T10:21:47.085Z,78.75
2023-01-18T10:22:47.070Z,84.38
2023-01-18T10:23:47.080Z,84.38
2023-01-18T10:24:47.372Z,84.38
2023-01-18T10:25:47.087Z,84.38
2023-01-18T10:26:47.100Z,84.38
2023-01-18T10:27:47.201Z,84.38
2023-01-18T10:28:46.596Z,84.38
2023-01-18T10:29:45.346Z,84.38
2023-01-18T10:30:45.380Z,84.38
2023-01-18T10:31:46.169Z,84.38
2023-01-18T10:32:45.365Z,84.38
2023-01-18T10:33:45.361Z,84.38
2023-01-18T10:34:45.675Z,84.38
2023-01-18T10:35:47.451Z,84.38
2023-01-18T10:36:47.118Z,84.38
2023-01-18T10:37:47.283Z,84.38
2023-01-18T10:38:46.112Z,84.38
2023-01-18T10:39:45.425Z,84.38
2023-01-18T10:40:45.270Z,84.38
2023-01-18T10:41:47.126Z,90.00
2023-01-18T10:42:47.111Z,90.00
2023-01-18T10:43:45.267Z,90.00
2023-01-18T10:44:45.267Z,90.00
2023-01-18T10:45:45.757Z,90.00
2023-01-18T10:46:45.262Z,90.00
2023-01-18T10:47:47.135Z,90.00
2023-01-18T10:48:45.268Z,90.00
2023-01-18T10:49:45.237Z,90.00
2023-01-18T10:50:47.114Z,95.63
2023-01-18T10:51:45.313Z,95.63
2023-01-18T10:52:47.100Z,95.63
2023-01-18T10:53:46.216Z,95.63
2023-01-18T10:54:45.222Z,95.63
2023-01-18T10:55:47.136Z,95.63
2023-01-18T10:56:45.217Z,101.25
2023-01-18T10:57:47.113Z,101.25
2023-01-18T10:58:45.229Z,106.88
2023-01-18T10:59:47.110Z,106.88
2023-01-18T11:00:47.197Z,106.88
2023-01-18T11:01:45.429Z,106.88
2023-01-18T11:02:47.228Z,106.88
2023-01-18T11:03:47.134Z,106.88
2023-01-18T11:04:45.182Z,112.50
2023-01-18T11:05:46.661Z,112.50
2023-01-18T11:06:47.135Z,106.88
2023-01-18T11:07:45.196Z,106.88
2023-01-18T11:08:45.172Z,106.88
2023-01-18T11:09:45.168Z,106.88
2023-01-18T11:11:47.146Z,101.25
2023-01-18T11:12:45.166Z,101.25
2023-01-18T11:13:45.181Z,95.63
2023-01-18T11:14:45.157Z,95.63
2023-01-18T11:15:45.158Z,95.63
2023-01-18T11:16:45.298Z,95.63
2023-01-18T11:17:46.795Z,95.63
2023-01-18T11:18:45.160Z,95.63
2023-01-18T11:19:47.119Z,95.63
2023-01-18T11:20:46.659Z,95.63
2023-01-18T11:21:47.134Z,95.63
2023-01-18T11:22:46.643Z,95.63
2023-01-18T11:23:46.628Z,95.63
2023-01-18T11:24:46.655Z,95.63
2023-01-18T11:25:46.628Z,101.25
2023-01-18T11:26:46.639Z,106.88
2023-01-18T11:27:46.633Z,106.88
2023-01-18T11:28:46.653Z,112.50
2023-01-18T11:29:47.142Z,123.75
2023-01-18T11:30:46.629Z,129.38
2023-01-18T11:31:45.194Z,140.63
2023-01-18T11:32:45.113Z,140.63
2023-01-18T11:33:46.674Z,135.00
2023-01-18T11:34:45.234Z,118.13
2023-01-18T11:35:46.704Z,101.25
2023-01-18T11:36:45.085Z,95.63
2023-01-18T11:37:46.636Z,95.63
2023-01-18T11:38:46.740Z,95.63
2023-01-18T11:39:45.658Z,101.25
2023-01-18T11:40:46.672Z,112.50
2023-01-18T11:41:45.097Z,123.75
2023-01-18T11:42:45.073Z,129.38
2023-01-18T11:43:46.686Z,135.00
2023-01-18T11:44:45.103Z,123.75
2023-01-18T11:45:45.591Z,129.38
2023-01-18T11:46:45.064Z,135.00
2023-01-18T11:47:45.054Z,129.38
2023-01-18T11:48:46.202Z,123.75
2023-01-18T11:49:46.056Z,140.63
2023-01-18T11:50:46.658Z,146.25
2023-01-18T11:51:46.648Z,146.25
2023-01-18T11:52:46.659Z,180.00
2023-01-18T11:53:46.679Z,168.75
2023-01-18T11:54:46.702Z,151.88
2023-01-18T11:55:46.671Z,151.88
2023-01-18T11:56:46.662Z,174.38
2023-01-18T11:57:46.656Z,157.50
2023-01-18T11:58:46.688Z,140.63
2023-01-18T11:59:46.675Z,140.63
2023-01-18T12:00:46.715Z,157.50
2023-01-18T12:01:46.686Z,140.63
2023-01-18T12:02:46.050Z,146.25
2023-01-18T12:03:45.064Z,151.88
2023-01-18T12:04:45.101Z,157.50
2023-01-18T12:05:46.940Z,163.13
2023-01-18T12:06:45.014Z,180.00
2023-01-18T12:07:45.000Z,185.63
2023-01-18T12:08:45.010Z,208.13
2023-01-18T12:09:45.062Z,202.50
2023-01-18T12:10:46.691Z,225.00
2023-01-18T12:11:45.765Z,213.75
2023-01-18T12:12:46.695Z,225.00
2023-01-18T12:13:46.731Z,219.38
2023-01-18T12:14:45.114Z,225.00
2023-01-18T12:15:45.083Z,236.25
2023-01-18T12:16:45.152Z,241.88
2023-01-18T12:17:46.250Z,219.38
2023-01-18T12:18:46.928Z,219.38
2023-01-18T12:19:45.824Z,230.63
2023-01-18T12:20:48.277Z,270.00
2023-01-18T12:21:44.990Z,281.25
2023-01-18T12:22:44.984Z,286.88
2023-01-18T12:23:46.691Z,281.25
2023-01-18T12:24:46.069Z,281.25
2023-01-18T12:25:44.978Z,286.88
2023-01-18T12:26:46.696Z,286.88
2023-01-18T12:27:44.953Z,315.00
2023-01-18T12:28:46.682Z,320.63
2023-01-18T12:29:44.959Z,309.38
2023-01-18T12:30:46.719Z,309.38
2023-01-18T12:31:46.709Z,337.50
2023-01-18T12:32:44.956Z,337.50
2023-01-18T12:33:46.693Z,382.50
2023-01-18T12:34:46.715Z,585.00
2023-01-18T12:35:46.698Z,635.63
2023-01-18T12:36:46.737Z,495.00
2023-01-18T12:37:46.715Z,472.50
2023-01-18T12:38:46.716Z,416.25
2023-01-18T12:39:46.692Z,517.50
2023-01-18T12:40:46.716Z,495.00
2023-01-18T12:41:46.753Z,489.38
2023-01-18T12:42:46.718Z,483.75
2023-01-18T12:43:46.694Z,540.00
2023-01-18T12:44:44.942Z,624.38
2023-01-18T12:45:44.953Z,708.75
2023-01-18T12:46:46.723Z,787.50
2023-01-18T12:47:44.987Z,877.50
2023-01-18T12:48:44.937Z,967.50
2023-01-18T12:49:45.034Z,1046.25
2023-01-18T12:50:45.088Z,1023.75
2023-01-18T12:51:46.725Z,1119.38
2023-01-18T12:52:44.938Z,1091.25
2023-01-18T12:53:44.948Z,1153.13
2023-01-18T12:54:46.705Z,1170.00
2023-01-18T12:55:46.756Z,1170.00
2023-01-18T12:56:46.756Z,1209.38
2023-01-18T12:57:46.755Z,1063.13
2023-01-18T12:58:44.936Z,1136.25
2023-01-18T12:59:46.713Z,1181.25
2023-01-18T13:00:46.770Z,1102.50
2023-01-18T13:01:46.838Z,1282.50
2023-01-18T13:02:44.983Z,1260.00
2023-01-18T13:03:46.721Z,1265.63
2023-01-18T13:04:46.714Z,1203.75
2023-01-18T13:05:46.737Z,1198.13
2023-01-18T13:06:46.720Z,1276.88
2023-01-18T13:07:46.757Z,1254.38
2023-01-18T13:08:46.746Z,1260.00
2023-01-18T13:09:46.729Z,1209.38
2023-01-18T13:10:46.751Z,1113.75
2023-01-18T13:11:46.739Z,990.00
2023-01-18T13:12:46.724Z,511.88
2023-01-18T13:13:46.752Z,438.75
2023-01-18T13:14:46.746Z,450.00
2023-01-18T13:15:46.786Z,483.75
2023-01-18T13:16:46.732Z,556.88
2023-01-18T13:17:46.763Z,562.50
2023-01-18T13:18:46.745Z,540.00
2023-01-18T13:19:46.739Z,601.88
2023-01-18T13:20:46.751Z,652.50
2023-01-18T13:21:46.781Z,663.75
2023-01-18T13:22:44.982Z,714.38
2023-01-18T13:23:46.774Z,871.88
2023-01-18T13:24:46.775Z,810.00
2023-01-18T13:25:46.744Z,736.88
2023-01-18T13:26:46.786Z,894.38
2023-01-18T13:27:46.759Z,995.63
2023-01-18T13:28:46.752Z,956.25
2023-01-18T13:29:46.754Z,928.13
2023-01-18T13:30:46.823Z,939.38
2023-01-18T13:31:46.789Z,956.25
2023-01-18T13:32:46.770Z,883.13
2023-01-18T13:33:46.753Z,905.63
2023-01-18T13:34:48.763Z,1068.75
2023-01-18T13:35:46.749Z,1091.25
2023-01-18T13:36:46.775Z,1035.00
2023-01-18T13:37:46.766Z,1057.50
2023-01-18T13:38:46.759Z,1068.75
2023-01-18T13:39:46.894Z,1023.75
2023-01-18T13:40:46.769Z,1001.25
2023-01-18T13:41:46.758Z,1040.63
2023-01-18T13:42:46.781Z,1057.50
2023-01-18T13:43:46.774Z,1068.75
2023-01-18T13:44:46.768Z,1057.50
2023-01-18T13:45:46.779Z,1035.00
2023-01-18T13:46:46.862Z,1018.13
2023-01-18T13:47:46.803Z,973.13
2023-01-18T13:48:46.822Z,894.38
2023-01-18T13:49:46.770Z,922.50
2023-01-18T13:50:46.801Z,956.25
2023-01-18T13:51:46.771Z,911.25
2023-01-18T13:52:46.773Z,843.75
2023-01-18T13:53:46.797Z,725.63
2023-01-18T13:54:46.721Z,545.63
2023-01-18T13:55:46.795Z,495.00
2023-01-18T13:56:45.045Z,382.50
2023-01-18T13:57:45.009Z,303.75
2023-01-18T13:58:46.787Z,382.50
2023-01-18T13:59:45.014Z,371.25
2023-01-18T14:00:46.817Z,337.50
2023-01-18T14:01:46.849Z,416.25
2023-01-18T14:02:45.032Z,579.38
2023-01-18T14:03:46.813Z,528.75
2023-01-18T14:04:45.038Z,399.38
2023-01-18T14:05:46.800Z,433.13
2023-01-18T14:06:46.808Z,410.63
2023-01-18T14:07:45.023Z,500.63
2023-01-18T14:08:46.786Z,540.00
2023-01-18T14:09:46.786Z,433.13
2023-01-18T14:10:46.831Z,303.75
2023-01-18T14:11:46.809Z,286.88
2023-01-18T14:12:46.834Z,264.38
2023-01-18T14:13:46.833Z,331.88
2023-01-18T14:14:46.796Z,438.75
2023-01-18T14:15:46.916Z,483.75
2023-01-18T14:16:46.826Z,455.63
2023-01-18T14:17:58.222Z,416.25
2023-01-18T14:18:46.796Z,427.50
2023-01-18T14:19:46.794Z,438.75
2023-01-18T14:20:46.819Z,495.00
2023-01-18T14:21:45.041Z,511.88
2023-01-18T14:22:45.058Z,534.38
2023-01-18T14:23:45.032Z,534.38
2023-01-18T14:24:45.064Z,556.88
2023-01-18T14:25:45.037Z,551.25
2023-01-18T14:26:46.823Z,495.00
2023-01-18T14:27:46.816Z,376.88
2023-01-18T14:28:46.837Z,326.25
2023-01-18T14:29:45.072Z,371.25
2023-01-18T14:30:46.818Z,360.00
2023-01-18T14:31:46.836Z,337.50
2023-01-18T14:32:46.810Z,315.00
2023-01-18T14:33:46.821Z,253.13
2023-01-18T14:34:46.836Z,213.75
2023-01-18T14:35:46.859Z,180.00
2023-01-18T14:36:46.847Z,151.88
2023-01-18T14:37:46.819Z,157.50
2023-01-18T14:38:46.816Z,163.13
2023-01-18T14:39:46.829Z,163.13
2023-01-18T14:40:46.844Z,185.63
2023-01-18T14:41:46.346Z,157.50
2023-01-18T14:42:46.849Z,106.88
2023-01-18T14:43:46.833Z,73.13
2023-01-18T14:44:57.955Z,67.50
2023-01-18T14:45:46.863Z,61.88
2023-01-18T14:46:49.755Z,56.25
2023-01-18T14:47:46.853Z,56.25
2023-01-18T14:48:46.849Z,61.88
2023-01-18T14:49:46.826Z,56.25
2023-01-18T14:50:46.857Z,56.25
2023-01-18T14:51:46.850Z,56.25
2023-01-18T14:52:46.855Z,50.63
2023-01-18T14:53:45.034Z,50.63
2023-01-18T14:54:47.352Z,50.63
2023-01-18T14:55:45.028Z,50.63
2023-01-18T14:56:46.851Z,45.00
2023-01-18T14:57:46.860Z,45.00
2023-01-18T14:58:46.835Z,45.00
2023-01-18T14:59:46.838Z,45.00
2023-01-18T15:00:46.945Z,39.38
2023-01-18T15:01:46.894Z,39.38
2023-01-18T15:02:46.950Z,39.38
2023-01-18T15:03:46.881Z,39.38
2023-01-18T15:04:46.870Z,39.38
2023-01-18T15:05:46.839Z,39.38
2023-01-18T15:06:46.849Z,33.75
2023-01-18T15:07:46.877Z,33.75
2023-01-18T15:08:46.918Z,33.75
2023-01-18T15:09:46.857Z,33.75
2023-01-18T15:10:46.853Z,28.13
2023-01-18T15:11:46.867Z,28.13
2023-01-18T15:12:46.873Z,28.13
2023-01-18T15:13:46.871Z,28.13
2023-01-18T15:14:46.905Z,28.13
2023-01-18T15:15:46.860Z,28.13
2023-01-18T15:16:46.875Z,22.50
2023-01-18T15:17:46.895Z,22.50
2023-01-18T15:18:46.886Z,22.50
2023-01-18T15:19:46.883Z,22.50
2023-01-18T15:20:46.863Z,22.50
2023-01-18T15:21:46.877Z,22.50
2023-01-18T15:22:46.855Z,16.88
2023-01-18T15:23:46.889Z,16.88
2023-01-18T15:24:46.919Z,16.88
2023-01-18T15:25:44.980Z,16.88
2023-01-18T15:26:44.956Z,16.88
2023-01-18T15:27:44.987Z,16.88
2023-01-18T15:28:44.975Z,16.88
2023-01-18T15:29:46.874Z,11.25
2023-01-18T15:30:46.885Z,11.25
2023-01-18T15:31:44.973Z,11.25
2023-01-18T15:32:46.903Z,11.25
2023-01-18T15:33:45.937Z,11.25
2023-01-18T15:34:45.943Z,11.25
2023-01-18T15:35:47.991Z,11.25
2023-01-18T15:36:46.392Z,11.25
2023-01-18T15:37:45.928Z,5.63
2023-01-18T15:38:46.878Z,5.63
2023-01-18T15:39:45.921Z,5.63
2023-01-18T15:40:46.888Z,5.63
2023-01-18T15:41:46.883Z,5.63
2023-01-18T15:42:46.890Z,5.63
2023-01-18T15:43:45.912Z,5.63
2023-01-18T15:44:45.886Z,5.63
2023-01-18T15:45:46.923Z,5.63
2023-01-18T15:46:46.404Z,5.63
2023-01-18T15:47:46.389Z,5.63
2023-01-18T15:48:46.394Z,0.00
2023-01-18T15:49:46.389Z,0.00
2023-01-18T15:50:46.421Z,0.00
2023-01-18T15:51:46.411Z,0.00
2023-01-18T15:52:46.399Z,0.00
2023-01-18T15:53:45.934Z,0.00
2023-01-18T15:54:46.403Z,0.00
2023-01-18T15:55:44.851Z,0.00
2023-01-18T15:56:46.399Z,0.00
2023-01-18T15:57:46.422Z,0.00
2023-01-18T15:58:44.859Z,0.00
2023-01-18T15:59:44.840Z,0.00
2023-01-18T16:00:46.547Z,0.00
2023-01-18T16:12:58.345Z,0.00
2023-01-18T16:13:58.821Z,0.00
2023-01-18T16:14:58.811Z,0.00
2023-01-18T16:15:58.846Z,0.00
2023-01-18T16:16:58.884Z,0.00
2023-01-18T16:17:59.210Z,0.00
2023-01-18T16:18:58.824Z,0.00
2023-01-18T16:19:58.832Z,0.00
2023-01-18T16:20:58.809Z,0.00
2023-01-18T16:21:58.801Z,0.00
2023-01-18T16:22:59.031Z,0.00
2023-01-18T16:23:58.846Z,0.00
2023-01-18T16:24:58.845Z,0.00
2023-01-18T16:25:58.832Z,0.00
2023-01-18T16:26:58.801Z,0.00
2023-01-18T16:27:58.576Z,0.00
2023-01-18T16:28:57.141Z,0.00
2023-01-18T16:29:58.821Z,0.00
2023-01-18T16:30:57.174Z,0.00
2023-01-18T16:31:57.101Z,0.00
2023-01-18T16:32:57.687Z,0.00
2023-01-18T16:33:57.145Z,0.00
2023-01-18T16:34:58.102Z,0.00
2023-01-18T16:35:57.106Z,0.00
2023-01-18T16:36:58.835Z,0.00
2023-01-18T16:37:57.387Z,0.00
2023-01-18T16:38:57.083Z,0.00
2023-01-18T16:39:58.831Z,0.00
2023-01-18T16:40:57.060Z,0.00
2023-01-18T16:41:57.057Z,0.00
2023-01-18T16:42:57.054Z,0.00
2023-01-18T16:43:58.052Z,0.00
2023-01-18T16:44:58.877Z,0.00
2023-01-18T16:45:57.100Z,0.00
2023-01-18T16:46:58.836Z,0.00
2023-01-18T16:47:59.252Z,0.00
2023-01-18T16:48:58.067Z,0.00
2023-01-18T16:49:58.347Z,0.00
2023-01-18T16:50:58.015Z,0.00
2023-01-18T16:51:58.854Z,0.00
2023-01-18T16:52:58.027Z,0.00
2023-01-18T16:53:58.841Z,0.00
2023-01-18T16:54:57.013Z,0.00
2023-01-18T16:55:58.882Z,0.00
2023-01-18T16:56:58.864Z,0.00
2023-01-18T16:57:59.150Z,0.00
2023-01-18T16:58:58.848Z,0.00
2023-01-18T16:59:58.838Z,0.00
2023-01-18T17:00:58.984Z,0.00
2023-01-18T17:01:59.004Z,0.00
2023-01-18T17:02:57.015Z,0.00
2023-01-18T17:03:56.970Z,0.00
2023-01-18T17:04:56.968Z,0.00
2023-01-18T17:05:58.855Z,0.00
2023-01-18T17:06:56.953Z,0.00
2023-01-18T17:07:58.693Z,0.00
2023-01-18T17:08:56.932Z,0.00
2023-01-18T17:09:56.937Z,0.00
2023-01-18T17:10:58.385Z,0.00
2023-01-18T17:11:56.935Z,0.00
2023-01-18T17:12:57.093Z,0.00
2023-01-18T17:13:56.925Z,0.00
2023-01-18T17:14:58.847Z,0.00
2023-01-18T17:15:58.871Z,0.00
2023-01-18T17:16:56.999Z,0.00
2023-01-18T17:17:58.849Z,0.00
2023-01-18T17:18:58.858Z,0.00
2023-01-18T17:19:58.854Z,0.00
2023-01-18T17:20:58.859Z,0.00
2023-01-18T17:21:58.858Z,0.00